Time;durP1;ratioP1;P1;durP2;ratioP2;P2;SDS_P1;SDS_P2;PMS_P1;PMS_P2;Temp;Humidity;BMP_temperature;BMP_pressure;BME280_temperature;BME280_humidity;BME280_pressure;Samples;Min_cycle;Max_cycle;Signal;HPM_P1;HPM_P2
2024/01/24 07:18:23;;;;;;;;;;;;;;;9.98;69.57;98587.81;4231288;27;10398;-62
2024/01/24 07:20:26;;;;;;;;;;;;;;;10.27;68.77;98580.59;4208555;28;5627;-62
2024/01/24 07:22:28;;;;;;;;;;;;;;;10.48;68.19;98581.16;4214702;28;5619;-63
2024/01/24 07:24:31;;;;;;;;;;;;;;;10.66;67.92;98575.06;4214635;28;5624;-62
2024/01/24 07:26:35;;;;;;;;;;;;;;;10.78;67.33;98590.56;4214905;28;5732;-62
2024/01/24 07:28:38;;;;;;;;;;;;;;;10.89;67.39;98583.41;4214231;28;5722;-62
2024/01/24 07:30:41;;;;;;;;;;;;;;;11.00;66.93;98580.53;4214616;28;5715;-62
2024/01/24 07:32:44;;;;;;;;;;;;;;;11.08;66.67;98575.28;4214403;28;5833;-63
2024/01/24 07:34:47;;;;;;;;;;;;;;;11.15;66.58;98588.75;4214342;28;5734;-63
2024/01/24 07:36:50;;;;;;;;;;;;;;;11.22;66.60;98592.47;4209860;28;5879;-63
2024/01/24 07:38:53;;;;;;;;;;;;;;;11.28;66.22;98594.47;4213691;28;5624;-63
2024/01/24 07:40:56;;;;;;;;;;;;;;;11.32;66.19;98585.22;4212082;28;5617;-63
2024/01/24 07:43:00;;;;;;;;;;;;;;;11.35;65.95;98582.28;4214688;28;5624;-63
2024/01/24 07:45:04;;;;;;;;;;;;;;;11.37;65.72;98582.97;4215856;28;5626;-63
2024/01/24 07:47:07;;;;;;;;;;;;;;;11.42;65.65;98583.31;4214727;28;5802;-63
2024/01/24 07:49:10;;;;;;;;;;;;;;;11.47;65.65;98596.94;4214390;28;5722;-63
2024/01/24 07:51:15;;;;;;;;;;;;;;;11.50;65.28;98586.03;4219423;28;5624;-64
2024/01/24 07:53:18;;;;;;;;;;;;;;;11.53;64.95;98580.41;4213497;28;5731;-64
2024/01/24 07:55:22;;;;;;;;;;;;;;;11.55;65.19;98589.06;4209410;28;5639;-66
2024/01/24 07:57:39;;;;;;;;;;;;;;;11.54;64.84;98584.72;4214252;28;5639;-70
2024/01/24 07:59:42;;;;;;;;;;;;;;;11.60;64.75;98588.59;4213706;28;5845;-69
2024/01/24 08:01:46;;;;;;;;;;;;;;;11.60;64.52;98586.75;4215253;28;5718;-67
2024/01/24 08:03:50;;;;;;;;;;;;;;;11.60;64.45;98580.63;4212480;28;5659;-66
2024/01/24 08:05:54;;;;;;;;;;;;;;;11.63;64.73;98581.16;4214395;28;5830;-72
2024/01/24 08:07:59;;;;;;;;;;;;;;;11.64;64.62;98582.81;4213656;28;6427;-66
2024/01/24 08:10:02;;;;;;;;;;;;;;;11.64;64.41;98574.03;4215040;28;5938;-67
2024/01/24 08:12:05;;;;;;;;;;;;;;;11.65;64.29;98584.47;4213754;28;5786;-69
2024/01/24 08:14:09;;;;;;;;;;;;;;;11.68;64.37;98590.47;4213090;28;5634;-64
2024/01/24 08:16:14;;;;;;;;;;;;;;;11.70;64.14;98599.06;4213428;28;5765;-65
2024/01/24 08:18:17;;;;;;;;;;;;;;;11.71;64.04;98598.91;4208569;28;5683;-64
2024/01/24 08:20:21;;;;;;;;;;;;;;;11.73;63.94;98607.53;4202081;28;5733;-64
2024/01/24 08:22:24;;;;;;;;;;;;;;;11.75;64.10;98610.03;4202932;28;5730;-63
2024/01/24 08:24:28;;;;;;;;;;;;;;;11.76;64.08;98619.63;4196231;28;5670;-64
2024/01/24 08:26:32;;;;;;;;;;;;;;;11.78;63.83;98620.31;4187801;28;5544;-63
2024/01/24 08:28:35;;;;;;;;;;;;;;;11.80;63.70;98603.31;4202648;28;7680;-64
2024/01/24 08:30:37;;;;;;;;;;;;;;;11.81;63.69;98594.38;4202704;28;5822;-64
2024/01/24 08:32:41;;;;;;;;;;;;;;;11.83;63.57;98595.03;4201982;28;5758;-65
2024/01/24 08:34:44;;;;;;;;;;;;;;;11.84;63.46;98594.06;4194220;28;5687;-68
2024/01/24 08:36:47;;;;;;;;;;;;;;;11.85;63.58;98600.19;4188739;28;5630;-67
2024/01/24 08:38:50;;;;;;;;;;;;;;;11.86;63.41;98601.84;4189638;28;5620;-64
2024/01/24 08:40:54;;;;;;;;;;;;;;;11.88;63.50;98608.63;4202660;28;5710;-64
2024/01/24 08:42:56;;;;;;;;;;;;;;;11.92;63.20;98617.97;4202684;28;5638;-64
2024/01/24 08:45:00;;;;;;;;;;;;;;;11.95;63.52;98616.81;4202089;28;5624;-64
2024/01/24 08:47:03;;;;;;;;;;;;;;;11.97;63.17;98625.44;4204675;28;5723;-65
2024/01/24 08:49:06;;;;;;;;;;;;;;;12.00;63.27;98633.06;4200244;28;5749;-65
2024/01/24 08:51:09;;;;;;;;;;;;;;;12.01;63.12;98634.75;4202398;28;5829;-69
2024/01/24 08:53:12;;;;;;;;;;;;;;;12.01;62.87;98637.41;4183491;28;5851;-66
2024/01/24 08:55:16;;;;;;;;;;;;;;;12.02;62.77;98638.22;4202222;28;5830;-66
2024/01/24 08:57:21;;;;;;;;;;;;;;;12.04;62.69;98639.72;4201951;28;5105;-66
2024/01/24 08:59:24;;;;;;;;;;;;;;;12.07;62.82;98636.75;4196314;28;5744;-66
2024/01/24 09:01:28;;;;;;;;;;;;;;;12.09;62.41;98645.38;4201706;28;5620;-66
2024/01/24 09:03:33;;;;;;;;;;;;;;;12.10;62.52;98646.19;4199235;28;5722;-62
2024/01/24 09:05:37;;;;;;;;;;;;;;;12.11;62.22;98648.69;4188730;28;5630;-62
2024/01/24 09:07:39;;;;;;;;;;;;;;;12.13;62.17;98645.91;4201610;28;6427;-62
2024/01/24 09:09:43;;;;;;;;;;;;;;;12.12;61.91;98645.09;4201622;28;6293;-63
2024/01/24 09:11:45;;;;;;;;;;;;;;;12.15;61.73;98639.47;4201918;28;5823;-62
2024/01/24 09:14:00;;;;;;;;;;;;;;;12.18;61.71;98641.78;4201700;28;5831;-62
2024/01/24 09:16:04;;;;;;;;;;;;;;;12.22;61.72;98650.25;4201976;28;5644;-62
2024/01/24 09:18:07;;;;;;;;;;;;;;;12.25;61.46;98655.25;4201379;28;5730;-62
2024/01/24 09:20:11;;;;;;;;;;;;;;;12.26;61.47;98658.72;4201729;28;5651;-63
2024/01/24 09:22:13;;;;;;;;;;;;;;;12.27;61.23;98657.75;4201980;28;5624;-62
2024/01/24 09:24:17;;;;;;;;;;;;;;;12.28;61.34;98652.28;4201605;28;5624;-62
2024/01/24 09:26:21;;;;;;;;;;;;;;;12.31;61.06;98661.72;4201917;28;5647;-62
2024/01/24 09:28:24;;;;;;;;;;;;;;;12.33;61.37;98668.53;4193996;28;5639;-63
2024/01/24 09:30:30;;;;;;;;;;;;;;;12.35;61.31;98677.19;4200720;28;5695;-62
2024/01/24 09:32:33;;;;;;;;;;;;;;;12.37;61.23;98677.03;4201538;28;5627;-61
2024/01/24 09:34:37;;;;;;;;;;;;;;;12.40;60.80;98674.03;4201644;28;5656;-61
2024/01/24 09:36:40;;;;;;;;;;;;;;;12.41;60.86;98667.75;4201603;28;5189;-62
2024/01/24 09:38:44;;;;;;;;;;;;;;;12.45;61.04;98674.38;4201510;28;5743;-61
2024/01/24 09:40:48;;;;;;;;;;;;;;;12.46;60.92;98682.22;4201539;28;5814;-61
2024/01/24 09:42:51;;;;;;;;;;;;;;;12.47;60.61;98677.72;4201582;28;5726;-62
2024/01/24 09:44:59;;;;;;;;;;;;;;;12.49;60.66;98681.88;4200746;28;5648;-62
2024/01/24 09:47:04;;;;;;;;;;;;;;;12.50;60.59;98670.28;4201744;28;5647;-61
2024/01/24 09:49:08;;;;;;;;;;;;;;;12.53;60.51;98679.72;4201493;28;5633;-62
2024/01/24 09:51:11;;;;;;;;;;;;;;;12.55;60.57;98677.75;4201450;28;5746;-62
2024/01/24 09:53:17;;;;;;;;;;;;;;;12.58;60.31;98673.97;4201228;28;6480;-61
2024/01/24 09:55:20;;;;;;;;;;;;;;;12.58;60.53;98674.81;4201546;28;5734;-62
2024/01/24 09:57:23;;;;;;;;;;;;;;;12.58;60.39;98666.84;4201262;28;5710;-62
2024/01/24 09:59:27;;;;;;;;;;;;;;;12.61;60.46;98677.13;4201279;28;5623;-63
2024/01/24 10:01:32;;;;;;;;;;;;;;;12.61;60.58;98690.38;4201221;28;5798;-62
2024/01/24 10:03:38;;;;;;;;;;;;;;;12.62;60.23;98689.41;4201195;28;5644;-62
2024/01/24 10:05:42;;;;;;;;;;;;;;;12.63;60.25;98684.91;4201182;28;5702;-63
2024/01/24 10:07:44;;;;;;;;;;;;;;;12.65;60.20;98688.25;4199828;28;7696;-62
2024/01/24 10:09:47;;;;;;;;;;;;;;;12.64;60.06;98698.03;4201214;28;5627;-62
2024/01/24 10:11:50;;;;;;;;;;;;;;;12.65;60.09;98682.94;4201329;28;5707;-62
2024/01/24 10:13:56;;;;;;;;;;;;;;;12.66;59.99;98696.03;4201028;28;5801;-62
2024/01/24 10:16:04;;;;;;;;;;;;;;;12.64;60.02;98698.03;4201207;28;5624;-62
2024/01/24 10:18:12;;;;;;;;;;;;;;;12.64;60.02;98687.41;4201094;28;5801;-63
2024/01/24 10:20:16;;;;;;;;;;;;;;;12.67;59.90;98684.44;4200990;28;5829;-62
2024/01/24 10:22:19;;;;;;;;;;;;;;;12.69;59.87;98687.78;4200994;28;5631;-62
2024/01/24 10:24:22;;;;;;;;;;;;;;;12.74;59.98;98687.28;4184264;28;5662;-63
2024/01/24 10:26:26;;;;;;;;;;;;;;;12.75;59.83;98668.53;4193414;28;5818;-63
2024/01/24 10:28:31;;;;;;;;;;;;;;;12.77;59.44;98666.56;4200905;28;5639;-62
2024/01/24 10:30:34;;;;;;;;;;;;;;;12.73;59.25;98665.22;4200701;28;5742;-62
2024/01/24 10:32:37;;;;;;;;;;;;;;;12.75;59.51;98663.22;4201137;28;5643;-61
2024/01/24 10:34:41;;;;;;;;;;;;;;;12.79;59.50;98658.44;4200981;28;5798;-62
2024/01/24 10:36:49;;;;;;;;;;;;;;;12.82;59.49;98651.00;4200457;28;5628;-63
2024/01/24 10:38:59;;;;;;;;;;;;;;;12.87;59.57;98645.19;4199555;28;5738;-62
2024/01/24 10:41:02;;;;;;;;;;;;;;;12.90;59.59;98644.84;4200898;28;5632;-63
2024/01/24 10:43:11;;;;;;;;;;;;;;;12.91;59.38;98643.03;4200510;28;5740;-62
2024/01/24 10:45:16;;;;;;;;;;;;;;;12.94;59.41;98643.56;4200571;28;5182;-62
2024/01/24 10:47:19;;;;;;;;;;;;;;;12.95;59.52;98636.41;4200713;28;5762;-63
2024/01/24 10:49:24;;;;;;;;;;;;;;;12.99;59.30;98637.75;4184143;28;5113;-62
2024/01/24 10:51:28;;;;;;;;;;;;;;;13.00;59.33;98626.94;4185015;28;5653;-62
2024/01/24 10:53:35;;;;;;;;;;;;;;;13.01;59.20;98619.81;4200293;28;5750;-62
2024/01/24 10:55:40;;;;;;;;;;;;;;;13.04;59.44;98624.81;4200723;28;5746;-62
2024/01/24 10:57:44;;;;;;;;;;;;;;;13.05;59.33;98621.16;4200293;28;5738;-63
2024/01/24 10:59:51;;;;;;;;;;;;;;;13.07;59.43;98619.19;4200651;28;5647;-62
2024/01/24 11:01:55;;;;;;;;;;;;;;;13.09;59.43;98607.38;4200429;28;5707;-62
2024/01/24 11:03:59;;;;;;;;;;;;;;;13.10;59.46;98622.31;4200393;28;5736;-62
2024/01/24 11:06:06;;;;;;;;;;;;;;;13.10;59.43;98624.16;4200482;28;5821;-61
2024/01/24 11:08:18;;;;;;;;;;;;;;;13.11;59.41;98605.41;4200261;28;5727;-62
2024/01/24 11:10:26;;;;;;;;;;;;;;;13.12;59.42;98603.56;4200565;28;5731;-63
2024/01/24 11:12:29;;;;;;;;;;;;;;;13.15;59.22;98605.91;4200722;28;6995;-62
2024/01/24 11:14:33;;;;;;;;;;;;;;;13.17;59.53;98600.44;4200539;28;5731;-62
2024/01/24 11:16:39;;;;;;;;;;;;;;;13.18;59.44;98594.94;4200357;28;5745;-62
2024/01/24 11:18:43;;;;;;;;;;;;;;;13.21;59.35;98594.66;4200441;28;5707;-62
2024/01/24 11:20:46;;;;;;;;;;;;;;;13.19;59.13;98578.06;4200506;28;5742;-62
2024/01/24 11:22:49;;;;;;;;;;;;;;;13.17;59.10;98582.69;4200270;28;5623;-61
2024/01/24 11:24:52;;;;;;;;;;;;;;;13.12;59.11;98579.66;4200399;28;5855;-62
2024/01/24 11:26:59;;;;;;;;;;;;;;;13.09;59.33;98580.84;4200213;28;6444;-62
2024/01/24 11:29:07;;;;;;;;;;;;;;;13.08;59.31;98573.88;4200431;28;5615;-61
2024/01/24 11:31:11;;;;;;;;;;;;;;;13.07;59.28;98574.88;4200445;28;5770;-61
2024/01/24 11:33:18;;;;;;;;;;;;;;;13.08;59.41;98567.72;4200270;28;5890;-62
2024/01/24 11:35:36;;;;;;;;;;;;;;;13.08;59.19;98570.38;4199665;28;5781;-61
2024/01/24 11:37:38;;;;;;;;;;;;;;;13.10;59.37;98560.41;4200000;28;5070;-61
2024/01/24 11:39:41;;;;;;;;;;;;;;;13.14;59.36;98567.09;4200222;28;5695;-62
2024/01/24 11:41:44;;;;;;;;;;;;;;;13.18;59.20;98555.13;4200432;28;5734;-61
2024/01/24 11:43:49;;;;;;;;;;;;;;;13.25;59.36;98555.28;4200198;28;5738;-63
2024/01/24 11:45:52;;;;;;;;;;;;;;;13.28;59.21;98554.97;4200160;28;6006;-62
2024/01/24 11:47:56;;;;;;;;;;;;;;;13.28;59.35;98550.50;4200170;28;7818;-62
2024/01/24 11:50:00;;;;;;;;;;;;;;;13.31;59.41;98558.13;4200000;28;5735;-62
2024/01/24 11:52:04;;;;;;;;;;;;;;;13.30;59.11;98545.00;4200030;28;5735;-63
2024/01/24 11:54:07;;;;;;;;;;;;;;;13.33;59.14;98556.13;4201915;28;5647;-63
2024/01/24 11:56:12;;;;;;;;;;;;;;;13.33;59.21;98555.28;4203566;28;5811;-62
2024/01/24 11:58:15;;;;;;;;;;;;;;;13.32;59.37;98543.84;4203078;28;5643;-61
2024/01/24 12:00:20;;;;;;;;;;;;;;;13.36;59.48;98537.22;4202716;28;6332;-61
2024/01/24 12:02:23;;;;;;;;;;;;;;;13.37;59.25;98530.91;4203225;28;5750;-61
2024/01/24 12:04:26;;;;;;;;;;;;;;;13.38;59.21;98529.91;4203213;28;5758;-61
2024/01/24 12:06:31;;;;;;;;;;;;;;;13.39;59.49;98536.88;4202867;28;5833;-62
2024/01/24 12:08:34;;;;;;;;;;;;;;;13.42;59.21;98540.19;4202961;28;5825;-62
2024/01/24 12:10:37;;;;;;;;;;;;;;;13.40;59.19;98530.56;4185017;28;5654;-62
2024/01/24 12:12:41;;;;;;;;;;;;;;;13.42;59.25;98537.53;4202968;28;5636;-62
2024/01/24 12:14:44;;;;;;;;;;;;;;;13.44;59.26;98543.50;4202940;28;5772;-62
2024/01/24 12:16:49;;;;;;;;;;;;;;;13.44;59.21;98532.88;4202790;28;5631;-62
2024/01/24 12:18:53;;;;;;;;;;;;;;;13.46;59.52;98533.53;4202972;28;5734;-61
2024/01/24 12:20:57;;;;;;;;;;;;;;;13.49;59.37;98531.38;4202947;28;5828;-61
2024/01/24 12:23:07;;;;;;;;;;;;;;;13.49;59.40;98518.09;4202523;28;5893;-61
2024/01/24 12:25:11;;;;;;;;;;;;;;;13.50;59.36;98516.28;4202824;28;5846;-61
2024/01/24 12:27:14;;;;;;;;;;;;;;;13.51;59.53;98520.59;4202725;28;5753;-62
2024/01/24 12:29:16;;;;;;;;;;;;;;;13.52;59.36;98515.09;4202838;28;5727;-62
2024/01/24 12:31:20;;;;;;;;;;;;;;;13.53;59.21;98519.41;4203126;28;5734;-63
2024/01/24 12:33:24;;;;;;;;;;;;;;;13.54;59.49;98515.75;4202676;28;6337;-61
2024/01/24 12:35:29;;;;;;;;;;;;;;;13.55;59.42;98519.22;4202585;28;5875;-61
2024/01/24 12:37:32;;;;;;;;;;;;;;;13.56;59.26;98512.91;4202472;28;5703;-63
2024/01/24 12:39:36;;;;;;;;;;;;;;;13.55;59.26;98504.13;4201094;28;6422;-62
2024/01/24 12:41:40;;;;;;;;;;;;;;;13.57;59.35;98506.59;4198797;28;5753;-62
2024/01/24 12:43:43;;;;;;;;;;;;;;;13.58;59.44;98502.94;4190098;28;5631;-62
2024/01/24 12:45:45;;;;;;;;;;;;;;;13.59;59.50;98501.94;4197371;28;6190;-62
2024/01/24 12:47:49;;;;;;;;;;;;;;;13.60;59.28;98500.97;4191327;28;5631;-62
2024/01/24 12:49:53;;;;;;;;;;;;;;;13.60;59.22;98498.31;4200124;28;5637;-63
2024/01/24 12:51:56;;;;;;;;;;;;;;;13.63;59.31;98505.94;4188259;28;5796;-63
2024/01/24 12:53:59;;;;;;;;;;;;;;;13.63;59.45;98495.31;4197881;28;6576;-63
2024/01/24 12:56:03;;;;;;;;;;;;;;;13.63;59.46;98505.94;4192426;28;5645;-62
2024/01/24 12:58:08;;;;;;;;;;;;;;;13.63;59.41;98505.94;4195233;28;6393;-63
2024/01/24 13:00:15;;;;;;;;;;;;;;;13.62;59.47;98504.28;4190457;28;5673;-62
2024/01/24 13:02:18;;;;;;;;;;;;;;;13.64;59.47;98499.63;4186033;28;5741;-62
2024/01/24 13:04:21;;;;;;;;;;;;;;;13.64;59.53;98492.47;4201700;28;5643;-62
2024/01/24 13:06:27;;;;;;;;;;;;;;;13.65;59.51;98491.47;4202090;28;5739;-63
2024/01/24 13:08:32;;;;;;;;;;;;;;;13.67;59.43;98493.94;4202000;28;5612;-61
2024/01/24 13:10:37;;;;;;;;;;;;;;;13.68;59.51;98492.94;4201235;28;5626;-62
2024/01/24 13:12:40;;;;;;;;;;;;;;;13.69;59.57;98489.28;4201952;28;5718;-63
2024/01/24 13:14:43;;;;;;;;;;;;;;;13.73;59.60;98487.13;4185521;28;5657;-63
2024/01/24 13:16:46;;;;;;;;;;;;;;;13.74;59.62;98478.97;4199544;28;5604;-63
2024/01/24 13:18:49;;;;;;;;;;;;;;;13.77;59.45;98483.94;4201981;28;5739;-63
2024/01/24 13:20:52;;;;;;;;;;;;;;;13.80;59.53;98472.97;4200329;28;5656;-63
2024/01/24 13:22:56;;;;;;;;;;;;;;;13.82;59.73;98472.81;4192951;28;5640;-63
2024/01/24 13:24:58;;;;;;;;;;;;;;;13.84;59.44;98473.47;4200609;28;5906;-63
2024/01/24 13:27:02;;;;;;;;;;;;;;;13.85;59.58;98475.94;4185009;28;5713;-63
2024/01/24 13:29:05;;;;;;;;;;;;;;;13.86;59.52;98482.91;4199465;28;6435;-64
2024/01/24 13:31:07;;;;;;;;;;;;;;;13.87;59.74;98473.94;4204176;28;5663;-64
2024/01/24 13:33:11;;;;;;;;;;;;;;;13.88;59.55;98475.59;4201401;28;5791;-64
2024/01/24 13:35:14;;;;;;;;;;;;;;;13.89;59.64;98482.56;4201725;28;6032;-63
2024/01/24 13:37:18;;;;;;;;;;;;;;;13.89;59.53;98481.75;4201289;28;7393;-63
2024/01/24 13:39:23;;;;;;;;;;;;;;;13.90;59.74;98478.91;4193347;28;5759;-63
2024/01/24 13:41:26;;;;;;;;;;;;;;;13.92;59.77;98484.88;4201551;28;5628;-63
2024/01/24 13:43:29;;;;;;;;;;;;;;;13.95;59.57;98476.56;4201394;28;5628;-63
2024/01/24 13:45:32;;;;;;;;;;;;;;;13.96;59.66;98472.91;4201339;28;5616;-64
2024/01/24 13:47:37;;;;;;;;;;;;;;;13.95;59.66;98470.44;4201464;28;5759;-63
2024/01/24 13:49:43;;;;;;;;;;;;;;;13.97;59.74;98473.75;4202761;28;5631;-63
2024/01/24 13:51:45;;;;;;;;;;;;;;;13.96;59.60;98480.06;4201409;28;5738;-64
2024/01/24 13:53:48;;;;;;;;;;;;;;;13.96;59.76;98480.88;4201220;28;5875;-64
2024/01/24 13:55:53;;;;;;;;;;;;;;;13.99;59.85;98487.69;4201336;28;5738;-65
2024/01/24 13:57:59;;;;;;;;;;;;;;;13.99;59.83;98487.69;4201174;28;5746;-64
2024/01/24 14:00:04;;;;;;;;;;;;;;;13.99;59.96;98488.50;4201131;28;5619;-64
2024/01/24 14:02:07;;;;;;;;;;;;;;;13.99;59.87;98485.03;4201101;28;5739;-64
2024/01/24 14:04:10;;;;;;;;;;;;;;;14.00;59.92;98484.00;4201448;28;5718;-64
2024/01/24 14:06:13;;;;;;;;;;;;;;;13.99;59.83;98488.50;4200918;28;5632;-64
2024/01/24 14:08:16;;;;;;;;;;;;;;;14.00;59.90;98489.34;4193538;28;5708;-64
2024/01/24 14:10:19;;;;;;;;;;;;;;;14.01;60.08;98485.66;4203726;28;5692;-64
2024/01/24 14:12:24;;;;;;;;;;;;;;;14.02;59.94;98492.63;4203631;28;5174;-64
2024/01/24 14:14:27;;;;;;;;;;;;;;;14.02;60.14;98487.31;4200472;28;6161;-65
2024/01/24 14:16:34;;;;;;;;;;;;;;;14.02;59.98;98489.97;4188235;28;5623;-64
2024/01/24 14:18:37;;;;;;;;;;;;;;;14.02;60.08;98492.63;4189149;28;5741;-65
2024/01/24 14:20:41;;;;;;;;;;;;;;;14.04;60.31;98492.47;4195162;28;5768;-67
2024/01/24 14:22:43;;;;;;;;;;;;;;;14.05;60.19;98496.81;4185794;28;5755;-66
2024/01/24 14:24:46;;;;;;;;;;;;;;;14.05;60.38;98491.50;4199885;28;5627;-65
2024/01/24 14:26:50;;;;;;;;;;;;;;;14.06;60.37;98488.66;4200358;28;5637;-68
2024/01/24 14:28:54;;;;;;;;;;;;;;;14.06;60.35;98482.50;4200281;28;5705;-67
2024/01/24 14:30:58;;;;;;;;;;;;;;;14.06;60.52;98485.16;4189101;28;5812;-67
2024/01/24 14:33:03;;;;;;;;;;;;;;;14.04;60.53;98490.63;4184320;28;5728;-67
2024/01/24 14:35:08;;;;;;;;;;;;;;;14.06;60.46;98490.47;4188322;28;6328;-67
2024/01/24 14:37:11;;;;;;;;;;;;;;;14.05;60.65;98497.63;4191964;28;5779;-67
2024/01/24 14:39:15;;;;;;;;;;;;;;;14.06;60.65;98498.47;4199999;28;5619;-66
2024/01/24 14:41:18;;;;;;;;;;;;;;;14.07;60.79;98505.44;4195827;28;5619;-65
2024/01/24 14:43:21;;;;;;;;;;;;;;;14.07;60.67;98505.44;4194822;28;5635;-65
2024/01/24 14:45:27;;;;;;;;;;;;;;;14.08;60.94;98493.78;4199595;28;5726;-68
2024/01/24 14:47:30;;;;;;;;;;;;;;;14.07;60.73;98492.13;4197066;28;5679;-67
2024/01/24 14:49:32;;;;;;;;;;;;;;;14.11;60.92;98501.41;4186302;28;5685;-68
2024/01/24 14:51:35;;;;;;;;;;;;;;;14.09;60.91;98503.44;4185918;28;6561;-65
2024/01/24 14:53:39;;;;;;;;;;;;;;;14.10;61.11;98500.59;4193520;28;5721;-66
2024/01/24 14:55:41;;;;;;;;;;;;;;;14.11;61.17;98502.25;4185601;28;5643;-66
2024/01/24 14:57:44;;;;;;;;;;;;;;;14.13;61.11;98504.72;4201849;28;5776;-67
2024/01/24 14:59:47;;;;;;;;;;;;;;;14.11;61.30;98512.88;4199599;28;6898;-69
2024/01/24 15:01:52;;;;;;;;;;;;;;;14.12;61.28;98509.22;4187057;28;5808;-67
2024/01/24 15:03:56;;;;;;;;;;;;;;;14.10;61.40;98500.59;4196183;28;5829;-66
2024/01/24 15:06:01;;;;;;;;;;;;;;;14.11;61.17;98501.41;4199388;28;5821;-67
2024/01/24 15:08:05;;;;;;;;;;;;;;;14.11;61.38;98496.09;4190689;28;5612;-67
2024/01/24 15:10:08;;;;;;;;;;;;;;;14.11;61.46;98493.44;4191914;28;5768;-69
2024/01/24 15:12:12;;;;;;;;;;;;;;;14.12;61.53;98503.91;4186459;28;6347;-66
2024/01/24 15:14:15;;;;;;;;;;;;;;;14.11;61.58;98494.25;4199233;28;5797;-67
2024/01/24 15:16:18;;;;;;;;;;;;;;;14.10;61.39;98505.09;4190055;28;5698;-70
2024/01/24 15:18:23;;;;;;;;;;;;;;;14.08;61.55;98501.78;4174580;28;6352;-68
2024/01/24 15:20:26;;;;;;;;;;;;;;;14.09;61.77;98506.09;4171062;28;5685;-67
2024/01/24 15:22:29;;;;;;;;;;;;;;;14.09;61.63;98511.41;4161217;28;5657;-66
2024/01/24 15:24:33;;;;;;;;;;;;;;;14.07;61.83;98521.41;4178873;28;5635;-68
2024/01/24 15:26:35;;;;;;;;;;;;;;;14.06;61.79;98519.75;4181366;28;5698;-65
2024/01/24 15:28:39;;;;;;;;;;;;;;;14.05;61.72;98529.53;4185229;28;5823;-68
2024/01/24 15:30:42;;;;;;;;;;;;;;;13.99;61.70;98517.75;4176352;28;5806;-68
2024/01/24 15:32:46;;;;;;;;;;;;;;;14.02;61.87;98519.22;4180912;28;6346;-66
2024/01/24 15:34:50;;;;;;;;;;;;;;;14.03;61.76;98512.09;4177044;28;5750;-65
2024/01/24 15:36:53;;;;;;;;;;;;;;;14.03;61.87;98514.75;4174887;28;5628;-66
2024/01/24 15:38:56;;;;;;;;;;;;;;;14.03;62.18;98512.91;4178673;28;5819;-65
2024/01/24 15:40:59;;;;;;;;;;;;;;;14.02;61.89;98518.41;4171500;28;5767;-65
2024/01/24 15:43:03;;;;;;;;;;;;;;;14.01;61.96;98516.75;4181750;28;5725;-64
2024/01/24 15:45:07;;;;;;;;;;;;;;;13.99;61.98;98520.41;4180835;28;5658;-64
2024/01/24 15:47:10;;;;;;;;;;;;;;;13.99;62.26;98520.41;4173027;28;5670;-64
2024/01/24 15:49:13;;;;;;;;;;;;;;;13.99;62.22;98525.72;4175875;28;5754;-65
2024/01/24 15:51:18;;;;;;;;;;;;;;;13.98;62.37;98532.06;4184820;28;5638;-64
2024/01/24 15:53:21;;;;;;;;;;;;;;;13.99;62.04;98540.84;4179139;28;6335;-64
2024/01/24 15:55:24;;;;;;;;;;;;;;;13.97;62.20;98537.56;4181224;28;5681;-64
2024/01/24 15:57:27;;;;;;;;;;;;;;;13.98;62.36;98529.41;4186148;28;5824;-64
2024/01/24 15:59:31;;;;;;;;;;;;;;;13.98;62.34;98528.56;4185283;28;5717;-64
2024/01/24 16:01:34;;;;;;;;;;;;;;;13.97;62.42;98527.75;4186181;28;5720;-64
2024/01/24 16:03:38;;;;;;;;;;;;;;;13.96;62.23;98536.72;4191962;28;5787;-64
2024/01/24 16:05:45;;;;;;;;;;;;;;;13.96;62.22;98526.09;4186077;28;5658;-63
2024/01/24 16:07:50;;;;;;;;;;;;;;;13.97;62.51;98516.28;4182466;28;5707;-63
2024/01/24 16:09:54;;;;;;;;;;;;;;;13.97;62.60;98519.75;4182086;28;5708;-64
2024/01/24 16:11:57;;;;;;;;;;;;;;;13.98;62.69;98509.97;4189668;28;5846;-64
2024/01/24 16:14:00;;;;;;;;;;;;;;;13.99;62.49;98514.28;4188758;28;5659;-63
2024/01/24 16:16:04;;;;;;;;;;;;;;;13.99;62.44;98520.41;4181263;28;5731;-63
2024/01/24 16:18:08;;;;;;;;;;;;;;;13.99;62.42;98525.72;4196809;28;6849;-64
2024/01/24 16:20:10;;;;;;;;;;;;;;;13.99;62.59;98535.53;4191748;28;5762;-64
2024/01/24 16:22:14;;;;;;;;;;;;;;;13.98;62.58;98540.03;4189764;28;5736;-64
2024/01/24 16:24:18;;;;;;;;;;;;;;;13.96;62.57;98544.69;4192093;28;5645;-64
2024/01/24 16:26:20;;;;;;;;;;;;;;;13.93;62.40;98547.72;4195276;28;5682;-64
2024/01/24 16:28:23;;;;;;;;;;;;;;;13.94;62.69;98544.03;4189031;28;5936;-63
2024/01/24 16:30:27;;;;;;;;;;;;;;;13.94;62.55;98546.69;4188863;28;6677;-63
2024/01/24 16:32:31;;;;;;;;;;;;;;;13.95;62.80;98544.88;4182378;28;5857;-63
2024/01/24 16:34:35;;;;;;;;;;;;;;;13.96;62.52;98546.53;4193230;28;6357;-63
2024/01/24 16:36:38;;;;;;;;;;;;;;;13.96;62.70;98551.84;4190380;28;5770;-63
2024/01/24 16:38:41;;;;;;;;;;;;;;;13.95;62.82;98545.69;4198433;28;5734;-63
2024/01/24 16:40:44;;;;;;;;;;;;;;;13.94;62.83;98541.38;4199020;28;6314;-63
2024/01/24 16:42:47;;;;;;;;;;;;;;;13.92;62.66;98546.03;4193655;28;5117;-63
2024/01/24 16:44:51;;;;;;;;;;;;;;;13.96;62.71;98549.19;4191657;28;5784;-63
2024/01/24 16:46:55;;;;;;;;;;;;;;;13.96;62.85;98543.88;4191252;28;5740;-64
2024/01/24 16:48:57;;;;;;;;;;;;;;;13.95;62.84;98535.06;4189650;28;5930;-63
2024/01/24 16:51:00;;;;;;;;;;;;;;;13.95;62.71;98527.09;4195827;28;6320;-63
2024/01/24 16:53:04;;;;;;;;;;;;;;;13.96;62.94;98533.22;4197268;28;5618;-67
2024/01/24 16:55:08;;;;;;;;;;;;;;;13.97;62.75;98527.75;4192696;28;5634;-63
2024/01/24 16:57:13;;;;;;;;;;;;;;;13.97;62.81;98533.06;4193014;28;5815;-64
2024/01/24 16:59:17;;;;;;;;;;;;;;;13.96;62.63;98531.41;4196744;28;5858;-64
2024/01/24 17:01:19;;;;;;;;;;;;;;;13.94;62.92;98522.78;4200098;28;5752;-64
2024/01/24 17:03:22;;;;;;;;;;;;;;;13.94;62.74;98538.72;4202258;28;5756;-64
2024/01/24 17:05:26;;;;;;;;;;;;;;;13.94;62.79;98538.72;4199638;28;5849;-63
2024/01/24 17:07:29;;;;;;;;;;;;;;;13.94;62.84;98549.38;4197126;28;5631;-63
2024/01/24 17:09:32;;;;;;;;;;;;;;;13.94;62.97;98538.72;4196899;28;5768;-63
2024/01/24 17:11:35;;;;;;;;;;;;;;;13.97;62.92;98537.56;4196832;28;5705;-63
2024/01/24 17:13:39;;;;;;;;;;;;;;;13.99;62.82;98538.19;4202953;28;5789;-63
2024/01/24 17:15:42;;;;;;;;;;;;;;;14.00;62.96;98531.88;4190451;28;5523;-63
2024/01/24 17:17:46;;;;;;;;;;;;;;;14.02;62.87;98531.69;4199017;28;5627;-63
2024/01/24 17:19:49;;;;;;;;;;;;;;;14.01;62.93;98525.56;4198518;28;5109;-62
2024/01/24 17:21:52;;;;;;;;;;;;;;;14.04;62.83;98527.03;4200073;28;5639;-62
2024/01/24 17:23:55;;;;;;;;;;;;;;;14.03;62.77;98520.88;4198782;28;5758;-63
2024/01/24 17:25:58;;;;;;;;;;;;;;;14.03;62.88;98520.06;4200068;28;5739;-63
2024/01/24 17:28:01;;;;;;;;;;;;;;;14.05;62.92;98526.88;4197217;28;5645;-63
2024/01/24 17:30:07;;;;;;;;;;;;;;;14.05;63.01;98528.72;4194743;28;5630;-63
2024/01/24 17:32:10;;;;;;;;;;;;;;;14.05;62.97;98520.75;4197959;28;5687;-64
2024/01/24 17:34:13;;;;;;;;;;;;;;;14.05;62.94;98524.22;4195880;28;5627;-63
2024/01/24 17:36:17;;;;;;;;;;;;;;;14.05;62.82;98518.91;4199254;28;5635;-64
2024/01/24 17:38:20;;;;;;;;;;;;;;;14.05;62.99;98523.41;4183045;28;5742;-63
2024/01/24 17:40:24;;;;;;;;;;;;;;;14.03;62.85;98525.38;4193815;28;5666;-64
2024/01/24 17:42:27;;;;;;;;;;;;;;;14.01;63.03;98522.06;4199301;28;6403;-63
2024/01/24 17:44:31;;;;;;;;;;;;;;;14.00;62.80;98518.59;4194711;28;5738;-64
2024/01/24 17:46:38;;;;;;;;;;;;;;;13.99;62.89;98516.94;4199656;28;5832;-64
2024/01/24 17:48:42;;;;;;;;;;;;;;;13.98;62.97;98520.59;4190920;28;5739;-64
2024/01/24 17:50:46;;;;;;;;;;;;;;;13.96;62.99;98520.78;4197227;28;6574;-64
2024/01/24 17:52:49;;;;;;;;;;;;;;;13.96;63.27;98518.09;4199233;28;5716;-63
2024/01/24 17:54:52;;;;;;;;;;;;;;;13.96;63.26;98520.78;4188168;28;5639;-63
2024/01/24 17:56:55;;;;;;;;;;;;;;;13.96;63.12;98512.78;4197212;28;5627;-64
2024/01/24 17:58:58;;;;;;;;;;;;;;;13.97;63.23;98514.44;4195218;28;5626;-63
2024/01/24 18:01:00;;;;;;;;;;;;;;;13.96;63.04;98512.78;4201213;28;5984;-64
2024/01/24 18:03:05;;;;;;;;;;;;;;;13.96;63.18;98514.63;4198841;28;5859;-63
2024/01/24 18:05:08;;;;;;;;;;;;;;;13.96;63.34;98512.78;4195603;28;5638;-63
2024/01/24 18:07:13;;;;;;;;;;;;;;;13.96;63.45;98510.13;4200912;28;5651;-63
2024/01/24 18:09:16;;;;;;;;;;;;;;;13.95;63.16;98508.47;4195881;28;5634;-63
2024/01/24 18:11:20;;;;;;;;;;;;;;;13.96;63.27;98504.81;4194346;28;5649;-63